createdAt,value
2024-01-16T00:01:50.990Z,2.15
2024-01-16T00:04:18.997Z,2.25
2024-01-16T00:06:48.545Z,2.33
2024-01-16T00:09:16.372Z,2.32
2024-01-16T00:11:46.019Z,2.33
2024-01-16T00:14:14.301Z,2.28
2024-01-16T00:16:45.941Z,2.31
2024-01-16T00:19:14.213Z,2.32
2024-01-16T00:21:42.054Z,2.20
2024-01-16T00:24:09.838Z,2.19
2024-01-16T00:26:37.933Z,2.13
2024-01-16T00:29:07.284Z,2.11
2024-01-16T00:31:35.366Z,2.07
2024-01-16T00:34:03.337Z,2.05
2024-01-16T00:36:31.610Z,2.12
2024-01-16T00:38:59.312Z,2.15
2024-01-16T00:41:28.010Z,2.19
2024-01-16T00:43:56.264Z,2.14
2024-01-16T00:46:25.716Z,2.09
2024-01-16T00:48:53.780Z,2.15
2024-01-16T00:51:21.746Z,2.17
2024-01-16T00:53:49.701Z,2.13
2024-01-16T00:56:16.678Z,2.09
2024-01-16T00:58:44.545Z,2.08
2024-01-16T01:01:12.321Z,2.09
2024-01-16T01:03:41.814Z,2.07
2024-01-16T01:06:09.816Z,2.11
2024-01-16T01:08:37.725Z,2.18
2024-01-16T01:11:06.340Z,2.15
2024-01-16T01:13:34.459Z,2.18
2024-01-16T01:16:02.653Z,2.10
2024-01-16T01:18:30.845Z,2.15
2024-01-16T01:21:00.008Z,2.06
2024-01-16T01:23:28.032Z,2.04
2024-01-16T01:25:55.812Z,2.05
2024-01-16T01:28:23.729Z,2.08
2024-01-16T01:30:51.814Z,2.11
2024-01-16T01:33:19.992Z,2.09
2024-01-16T01:35:47.899Z,2.08
2024-01-16T01:38:17.583Z,2.13
2024-01-16T01:40:45.599Z,2.09
2024-01-16T01:43:22.777Z,2.06
2024-01-16T01:46:11.371Z,2.09
2024-01-16T01:48:40.719Z,2.02
2024-01-16T01:51:08.990Z,1.94
2024-01-16T01:53:39.081Z,1.96
2024-01-16T01:56:10.534Z,2.00
2024-01-16T01:58:39.594Z,1.95
2024-01-16T02:01:09.023Z,1.98
2024-01-16T02:03:45.619Z,2.05
2024-01-16T02:06:14.323Z,1.99
2024-01-16T02:08:43.045Z,1.96
2024-01-16T02:11:11.362Z,1.93
2024-01-16T02:13:39.276Z,1.91
2024-01-16T02:16:08.039Z,1.96
2024-01-16T02:18:36.692Z,1.93
2024-01-16T02:21:08.377Z,1.93
2024-01-16T02:23:37.479Z,1.97
2024-01-16T02:26:06.246Z,1.83
2024-01-16T02:28:34.376Z,1.86
2024-01-16T02:31:02.222Z,1.88
2024-01-16T02:33:30.444Z,1.94
2024-01-16T02:35:59.165Z,1.94
2024-01-16T02:38:27.021Z,1.97
2024-01-16T02:40:56.347Z,1.96
2024-01-16T02:43:24.679Z,1.94
2024-01-16T02:45:53.209Z,1.92
2024-01-16T02:48:21.595Z,1.85
2024-01-16T02:50:50.042Z,1.88
2024-01-16T02:53:20.568Z,1.87
2024-01-16T02:55:48.491Z,1.76
2024-01-16T02:58:17.852Z,1.72
2024-01-16T03:00:45.656Z,1.81
2024-01-16T03:03:15.707Z,1.83
2024-01-16T03:05:43.798Z,1.88
2024-01-16T03:08:12.090Z,1.74
2024-01-16T03:10:40.155Z,1.73
2024-01-16T03:13:08.126Z,1.64
2024-01-16T03:15:37.241Z,1.65
2024-01-16T03:18:05.742Z,1.66
2024-01-16T03:20:33.707Z,1.71
2024-01-16T03:23:01.409Z,1.71
2024-01-16T03:25:31.635Z,1.70
2024-01-16T03:27:59.553Z,1.75
2024-01-16T03:30:28.493Z,1.74
2024-01-16T03:32:58.467Z,1.66
2024-01-16T03:35:28.928Z,1.60
2024-01-16T03:37:56.615Z,1.56
2024-01-16T03:40:24.348Z,1.56
2024-01-16T03:42:52.517Z,1.58
2024-01-16T03:45:20.669Z,1.57
2024-01-16T03:47:48.602Z,1.62
2024-01-16T03:50:17.977Z,1.65
2024-01-16T03:52:45.961Z,1.61
2024-01-16T03:55:13.661Z,1.61
2024-01-16T03:57:41.442Z,1.67
2024-01-16T04:00:13.804Z,1.66
2024-01-16T04:02:41.594Z,1.59
2024-01-16T04:05:10.043Z,1.61
2024-01-16T04:07:39.147Z,1.59
2024-01-16T04:10:08.596Z,1.53
2024-01-16T04:12:36.494Z,1.60
2024-01-16T04:15:04.545Z,1.54
2024-01-16T04:17:32.502Z,1.56
2024-01-16T04:20:00.424Z,1.51
2024-01-16T04:22:28.463Z,1.46
2024-01-16T04:24:57.860Z,1.47
2024-01-16T04:27:26.353Z,1.53
2024-01-16T04:29:54.244Z,1.58
2024-01-16T04:32:22.167Z,1.66
2024-01-16T04:34:49.858Z,1.57
2024-01-16T04:37:17.645Z,1.59
2024-01-16T04:39:45.330Z,1.46
2024-01-16T04:42:14.592Z,1.56
2024-01-16T04:44:42.479Z,1.60
2024-01-16T04:47:10.408Z,1.59
2024-01-16T04:49:38.310Z,1.48
2024-01-16T04:52:07.251Z,1.48
2024-01-16T04:54:35.060Z,1.44
2024-01-16T04:57:02.783Z,1.41
2024-01-16T04:59:32.749Z,1.48
2024-01-16T05:02:00.647Z,1.45
2024-01-16T05:04:28.465Z,1.33
2024-01-16T05:06:56.274Z,1.35
2024-01-16T05:09:24.060Z,1.43
2024-01-16T05:11:51.888Z,1.39
2024-01-16T05:14:19.930Z,1.36
2024-01-16T05:16:49.154Z,1.39
2024-01-16T05:19:17.220Z,1.38
2024-01-16T05:21:46.711Z,1.36
2024-01-16T05:24:14.514Z,1.36
2024-01-16T05:26:42.473Z,1.44
2024-01-16T05:29:11.036Z,1.54
2024-01-16T05:31:42.464Z,1.53
2024-01-16T05:34:11.991Z,1.62
2024-01-16T05:36:42.877Z,1.68
2024-01-16T05:39:11.649Z,1.67
2024-01-16T05:41:39.648Z,1.71
2024-01-16T05:44:07.830Z,1.66
2024-01-16T05:46:36.389Z,1.70
2024-01-16T05:49:04.992Z,1.64
2024-01-16T05:51:34.205Z,1.63
2024-01-16T05:54:02.171Z,1.59
2024-01-16T05:56:30.200Z,1.60
2024-01-16T05:58:58.309Z,1.60
2024-01-16T06:01:26.210Z,1.56
2024-01-16T06:03:54.036Z,1.44
2024-01-16T06:06:21.766Z,1.46
2024-01-16T06:08:51.328Z,1.55
2024-01-16T06:11:19.715Z,1.50
2024-01-16T06:13:48.042Z,1.55
2024-01-16T06:16:16.148Z,1.53
2024-01-16T06:18:44.222Z,1.54
2024-01-16T06:21:13.233Z,1.50
2024-01-16T06:23:41.067Z,1.48
2024-01-16T06:26:11.756Z,1.47
2024-01-16T06:28:39.500Z,1.51
2024-01-16T06:31:07.367Z,1.46
2024-01-16T06:33:36.478Z,1.53
2024-01-16T06:36:05.761Z,1.47
2024-01-16T06:38:34.166Z,1.53
2024-01-16T06:41:02.691Z,1.62
2024-01-16T06:43:31.785Z,1.61
2024-01-16T06:46:01.030Z,1.68
2024-01-16T06:48:31.832Z,1.72
2024-01-16T06:51:00.384Z,1.73
2024-01-16T06:53:29.838Z,1.69
2024-01-16T06:56:00.899Z,1.73
2024-01-16T06:58:28.945Z,1.76
2024-01-16T07:00:58.221Z,1.71
2024-01-16T07:03:25.973Z,1.69
2024-01-16T07:05:53.830Z,1.65
2024-01-16T07:08:22.530Z,1.54
2024-01-16T07:10:50.623Z,1.59
2024-01-16T07:13:18.476Z,1.59
2024-01-16T07:15:46.499Z,1.59
2024-01-16T07:18:15.724Z,1.61
2024-01-16T07:20:43.881Z,1.59
2024-01-16T07:23:11.693Z,1.62
2024-01-16T07:25:40.996Z,1.66
2024-01-16T07:28:09.844Z,1.59
2024-01-16T07:30:37.874Z,1.62
2024-01-16T07:33:06.839Z,1.62
2024-01-16T07:35:35.984Z,1.64
2024-01-16T07:38:05.849Z,1.69
2024-01-16T07:40:33.938Z,1.66
2024-01-16T07:43:02.165Z,1.67
2024-01-16T07:45:29.864Z,1.61
2024-01-16T07:48:00.421Z,1.64
2024-01-16T07:50:28.446Z,1.63
2024-01-16T07:52:57.803Z,1.70
2024-01-16T07:55:25.865Z,1.73
2024-01-16T07:57:54.115Z,1.74
2024-01-16T08:00:23.053Z,1.74
2024-01-16T08:02:51.251Z,1.77
2024-01-16T08:05:19.224Z,1.85
2024-01-16T08:07:47.227Z,1.79
2024-01-16T08:10:19.297Z,1.79
2024-01-16T08:12:47.567Z,1.68
2024-01-16T08:15:15.476Z,1.71
2024-01-16T08:17:43.622Z,1.72
2024-01-16T08:20:12.521Z,1.76
2024-01-16T08:22:40.315Z,1.77
2024-01-16T08:25:09.234Z,1.81
2024-01-16T08:27:39.228Z,1.81
2024-01-16T08:30:08.620Z,1.85
2024-01-16T08:32:36.522Z,1.79
2024-01-16T08:35:06.361Z,1.85
2024-01-16T08:37:35.242Z,1.86
2024-01-16T08:40:04.606Z,1.98
2024-01-16T08:42:32.970Z,2.01
2024-01-16T08:45:02.809Z,1.92
2024-01-16T08:47:30.722Z,1.91
2024-01-16T08:49:58.820Z,1.93
2024-01-16T08:52:26.835Z,1.97
2024-01-16T08:54:54.751Z,2.02
2024-01-16T08:57:25.038Z,1.99
2024-01-16T08:59:54.257Z,1.93
2024-01-16T09:02:24.032Z,2.04
2024-01-16T09:04:52.150Z,1.92
2024-01-16T09:07:20.345Z,1.92
2024-01-16T09:09:48.690Z,1.91
2024-01-16T09:12:17.265Z,1.91
2024-01-16T09:14:45.308Z,1.93
2024-01-16T09:17:13.406Z,1.96
2024-01-16T09:19:43.433Z,2.02
2024-01-16T09:22:11.512Z,2.16
2024-01-16T09:24:39.312Z,2.20
2024-01-16T09:27:08.282Z,2.12
2024-01-16T09:29:36.095Z,2.22
2024-01-16T09:32:04.163Z,2.19
2024-01-16T09:34:32.172Z,2.21
2024-01-16T09:37:04.142Z,2.18
2024-01-16T09:39:32.546Z,2.16
2024-01-16T09:42:02.187Z,2.24
2024-01-16T09:44:30.372Z,2.24
2024-01-16T09:47:01.387Z,2.33
2024-01-16T09:49:30.359Z,2.32
2024-01-16T09:52:00.225Z,2.40
2024-01-16T09:54:29.607Z,2.40
2024-01-16T09:57:01.173Z,2.42
2024-01-16T09:59:31.156Z,2.45
2024-01-16T10:01:59.590Z,2.59
2024-01-16T10:04:29.004Z,2.60
2024-01-16T10:06:59.812Z,2.65
2024-01-16T10:09:29.288Z,2.59
2024-01-16T10:11:57.091Z,2.66
2024-01-16T10:14:26.890Z,2.81
2024-01-16T10:16:59.408Z,2.92
2024-01-16T10:19:39.409Z,2.94
2024-01-16T10:22:14.359Z,2.91
2024-01-16T10:24:43.792Z,3.00
2024-01-16T10:27:11.846Z,3.06
2024-01-16T10:29:56.436Z,3.03
2024-01-16T10:32:32.135Z,2.91
2024-01-16T10:35:07.167Z,2.90
2024-01-16T10:37:48.668Z,2.91
2024-01-16T10:40:21.730Z,2.83
2024-01-16T10:42:59.845Z,2.88
2024-01-16T10:45:27.809Z,2.90
2024-01-16T10:48:04.312Z,2.89
2024-01-16T10:50:33.041Z,2.80
2024-01-16T10:53:03.817Z,2.76
2024-01-16T10:55:36.179Z,2.82
2024-01-16T10:58:04.950Z,2.81
2024-01-16T11:00:35.333Z,2.88
2024-01-16T11:03:08.193Z,2.86
2024-01-16T11:05:38.500Z,2.87
2024-01-16T11:08:07.680Z,2.96
2024-01-16T11:10:38.043Z,2.99
2024-01-16T11:13:08.321Z,2.96
2024-01-16T11:15:39.150Z,3.01
2024-01-16T11:18:08.435Z,3.02
2024-01-16T11:20:55.667Z,3.06
2024-01-16T11:23:25.833Z,3.09
2024-01-16T11:25:55.279Z,3.06
2024-01-16T11:28:29.604Z,3.00
2024-01-16T11:30:57.707Z,3.10
2024-01-16T11:33:47.197Z,3.07
2024-01-16T11:36:44.732Z,3.07
2024-01-16T11:39:18.673Z,3.04
2024-01-16T11:41:52.991Z,3.00
2024-01-16T11:44:43.992Z,3.09
2024-01-16T11:47:18.058Z,3.05
2024-01-16T11:49:46.672Z,2.97
2024-01-16T11:52:14.820Z,2.87
2024-01-16T11:54:43.138Z,2.90
2024-01-16T11:57:48.354Z,2.88
2024-01-16T12:00:20.807Z,2.83
2024-01-16T12:02:53.905Z,2.80
2024-01-16T12:05:22.514Z,2.81
2024-01-16T12:07:55.060Z,2.77
2024-01-16T12:10:24.399Z,2.78
2024-01-16T12:13:02.763Z,2.83
2024-01-16T12:15:33.267Z,2.86
2024-01-16T12:18:02.798Z,2.93
2024-01-16T12:20:32.740Z,2.86
2024-01-16T12:23:05.263Z,2.77
2024-01-16T12:26:00.629Z,2.74
2024-01-16T12:28:31.882Z,2.77
2024-01-16T12:31:02.417Z,2.88
2024-01-16T12:33:31.768Z,2.91
2024-01-16T12:36:06.300Z,2.86
2024-01-16T12:38:34.959Z,2.88
2024-01-16T12:41:04.287Z,2.97
2024-01-16T12:43:35.018Z,2.95
2024-01-16T12:46:03.025Z,2.99
2024-01-16T12:48:31.719Z,3.03
2024-01-16T12:51:04.944Z,3.02
2024-01-16T12:53:35.385Z,3.02
2024-01-16T12:56:04.741Z,3.02
2024-01-16T12:58:38.847Z,2.98
2024-01-16T13:01:38.081Z,2.83
2024-01-16T13:04:08.393Z,2.86
2024-01-16T13:06:37.022Z,2.90
2024-01-16T13:09:12.554Z,2.93
2024-01-16T13:11:48.629Z,2.85
2024-01-16T13:14:18.084Z,2.92
2024-01-16T13:16:46.332Z,2.99
2024-01-16T13:19:14.302Z,3.03
2024-01-16T13:21:42.308Z,3.04
2024-01-16T13:24:10.369Z,3.00
2024-01-16T13:26:38.534Z,2.91
2024-01-16T13:29:07.085Z,2.88
2024-01-16T13:31:36.408Z,2.89
2024-01-16T13:34:04.648Z,2.89
2024-01-16T13:36:47.327Z,2.82
2024-01-16T13:39:21.454Z,2.85
2024-01-16T13:41:49.514Z,2.82
2024-01-16T13:44:17.422Z,2.83
2024-01-16T13:46:57.512Z,2.83
2024-01-16T13:49:35.020Z,2.89
2024-01-16T13:52:04.340Z,2.85
2024-01-16T13:54:32.421Z,2.82
2024-01-16T13:57:06.697Z,2.86
2024-01-16T13:59:36.881Z,2.85
2024-01-16T14:02:07.243Z,2.85
2024-01-16T14:04:35.442Z,2.83
2024-01-16T14:07:12.270Z,2.88
2024-01-16T14:09:44.506Z,2.91
2024-01-16T14:12:13.406Z,2.88
2024-01-16T14:14:42.764Z,2.83
2024-01-16T14:17:12.107Z,2.85
2024-01-16T14:19:40.257Z,2.90
2024-01-16T14:22:08.080Z,2.89
2024-01-16T14:24:36.065Z,2.88
2024-01-16T14:27:04.208Z,2.94
2024-01-16T14:29:32.017Z,2.88
2024-01-16T14:31:59.880Z,2.90
2024-01-16T14:34:29.196Z,2.94
2024-01-16T14:36:59.102Z,2.85
2024-01-16T14:39:27.755Z,2.86
2024-01-16T14:41:57.307Z,2.83
2024-01-16T14:44:27.985Z,2.81
2024-01-16T14:46:55.862Z,2.85
2024-01-16T14:49:23.851Z,2.84
2024-01-16T14:51:53.153Z,2.86
2024-01-16T14:54:20.892Z,2.79
2024-01-16T14:56:49.911Z,2.76
2024-01-16T14:59:18.104Z,2.74
2024-01-16T15:01:46.460Z,2.73
2024-01-16T15:04:14.539Z,2.68
2024-01-16T15:06:42.990Z,2.63
2024-01-16T15:09:13.866Z,2.66
2024-01-16T15:11:43.123Z,2.69
2024-01-16T15:14:13.485Z,2.69
2024-01-16T15:16:41.271Z,2.69
2024-01-16T15:19:09.822Z,2.57
2024-01-16T15:21:37.951Z,2.54
2024-01-16T15:24:05.906Z,2.50
2024-01-16T15:26:35.190Z,2.49
2024-01-16T15:29:02.973Z,2.45
2024-01-16T15:31:30.746Z,2.38
2024-01-16T15:33:58.593Z,2.36
2024-01-16T15:36:26.794Z,2.40
2024-01-16T15:38:54.648Z,2.38
2024-01-16T15:41:22.506Z,2.31
2024-01-16T15:43:51.479Z,2.27
2024-01-16T15:46:20.053Z,2.18
2024-01-16T15:48:52.119Z,2.16
2024-01-16T15:51:20.278Z,2.13
2024-01-16T15:53:48.262Z,2.05
2024-01-16T15:56:17.021Z,2.05
2024-01-16T15:58:44.956Z,2.04
2024-01-16T16:01:14.074Z,2.05
2024-01-16T16:03:41.972Z,2.04
2024-01-16T16:06:10.045Z,1.98
2024-01-16T16:08:39.188Z,1.92
2024-01-16T16:11:07.024Z,1.97
2024-01-16T16:13:35.958Z,1.90
2024-01-16T16:16:03.916Z,1.96
2024-01-16T16:18:35.689Z,1.92
2024-01-16T16:21:04.104Z,1.88
2024-01-16T16:23:31.982Z,1.93
2024-01-16T16:26:00.158Z,1.92
2024-01-16T16:28:28.366Z,1.92
2024-01-16T16:30:57.141Z,1.95
2024-01-16T16:33:25.945Z,1.99
2024-01-16T16:35:55.227Z,2.06
2024-01-16T16:38:22.991Z,2.08
2024-01-16T16:40:50.867Z,2.10
2024-01-16T16:43:18.888Z,2.16
2024-01-16T16:45:46.708Z,2.29
2024-01-16T16:48:14.952Z,2.30
2024-01-16T16:50:44.131Z,2.41
2024-01-16T16:53:14.656Z,2.43
2024-01-16T16:55:42.522Z,2.47
2024-01-16T16:58:11.260Z,2.54
2024-01-16T17:00:41.946Z,2.52
2024-01-16T17:03:11.659Z,2.58
2024-01-16T17:05:40.509Z,2.43
2024-01-16T17:08:10.020Z,2.45
2024-01-16T17:10:39.140Z,2.32
2024-01-16T17:13:07.015Z,2.36
2024-01-16T17:15:34.933Z,2.37
2024-01-16T17:18:05.250Z,2.31
2024-01-16T17:20:33.570Z,2.31
2024-01-16T17:23:01.564Z,2.36
2024-01-16T17:25:30.566Z,2.32
2024-01-16T17:27:59.691Z,2.26
2024-01-16T17:30:27.582Z,2.17
2024-01-16T17:32:55.577Z,2.24
2024-01-16T17:35:25.366Z,2.18
2024-01-16T17:37:54.288Z,2.17
2024-01-16T17:40:23.915Z,2.17
2024-01-16T17:43:01.275Z,2.10
2024-01-16T17:45:31.347Z,2.05
2024-01-16T17:48:00.788Z,2.06
2024-01-16T17:50:30.035Z,2.02
2024-01-16T17:53:00.511Z,2.06
2024-01-16T17:55:31.036Z,2.04
2024-01-16T17:57:59.189Z,1.99
2024-01-16T18:00:29.298Z,2.00
2024-01-16T18:02:59.009Z,2.10
2024-01-16T18:05:30.725Z,2.14
2024-01-16T18:07:58.942Z,2.19
2024-01-16T18:10:27.718Z,2.05
2024-01-16T18:12:56.425Z,2.05
2024-01-16T18:15:25.309Z,2.00
2024-01-16T18:17:53.451Z,1.94
2024-01-16T18:20:23.164Z,1.93
2024-01-16T18:22:56.931Z,1.96
2024-01-16T18:25:26.073Z,1.87
2024-01-16T18:27:56.209Z,1.84
2024-01-16T18:30:25.326Z,1.85
2024-01-16T18:32:54.935Z,1.83
2024-01-16T18:35:24.521Z,1.78
2024-01-16T18:37:53.727Z,1.76
2024-01-16T18:40:24.626Z,1.70
2024-01-16T18:42:55.489Z,1.71
2024-01-16T18:45:23.653Z,1.66
2024-01-16T18:47:54.780Z,1.59
2024-01-16T18:50:26.419Z,1.64
2024-01-16T18:52:55.838Z,1.52
2024-01-16T18:55:23.569Z,1.57
2024-01-16T18:57:56.331Z,1.60
2024-01-16T19:00:24.337Z,1.60
2024-01-16T19:02:51.319Z,1.66
2024-01-16T19:05:21.055Z,1.69
2024-01-16T19:07:51.267Z,1.64
2024-01-16T19:10:19.160Z,1.55
2024-01-16T19:12:48.248Z,1.47
2024-01-16T19:15:19.313Z,1.41
2024-01-16T19:17:48.053Z,1.40
2024-01-16T19:20:16.468Z,1.35
2024-01-16T19:22:46.083Z,1.39
2024-01-16T19:25:17.377Z,1.41
2024-01-16T19:27:49.505Z,1.43
2024-01-16T19:30:20.665Z,1.40
2024-01-16T19:32:50.122Z,1.37
2024-01-16T19:35:19.140Z,1.36
2024-01-16T19:37:47.343Z,1.38
2024-01-16T19:40:18.021Z,1.35
2024-01-16T19:42:46.039Z,1.35
2024-01-16T19:45:15.313Z,1.24
2024-01-16T19:47:43.904Z,1.28
2024-01-16T19:50:21.476Z,1.30
2024-01-16T19:52:52.658Z,1.19
2024-01-16T19:55:24.892Z,1.20
2024-01-16T19:57:53.338Z,1.14
2024-01-16T20:00:22.175Z,1.07
2024-01-16T20:02:51.029Z,0.97
2024-01-16T20:05:20.521Z,0.98
2024-01-16T20:07:49.688Z,0.92
2024-01-16T20:10:18.572Z,0.91
2024-01-16T20:12:49.994Z,0.92
2024-01-16T20:15:20.715Z,0.97
2024-01-16T20:17:49.751Z,0.86
2024-01-16T20:20:17.934Z,0.90
2024-01-16T20:22:46.028Z,1.15
2024-01-16T20:25:14.637Z,1.36
2024-01-16T20:27:43.016Z,1.48
2024-01-16T20:30:14.279Z,1.53
2024-01-16T20:32:42.958Z,1.51
2024-01-16T20:35:11.886Z,1.43
2024-01-16T20:37:39.686Z,1.23
2024-01-16T20:40:10.199Z,1.12
2024-01-16T20:42:39.302Z,0.98
2024-01-16T20:45:10.218Z,0.95
2024-01-16T20:47:41.404Z,0.87
2024-01-16T20:50:10.787Z,0.90
2024-01-16T20:52:40.256Z,0.89
2024-01-16T20:55:09.167Z,0.88
2024-01-16T20:57:37.414Z,0.78
2024-01-16T21:00:14.298Z,0.78
2024-01-16T21:02:44.384Z,0.81
2024-01-16T21:05:12.572Z,0.73
2024-01-16T21:07:40.656Z,0.71
2024-01-16T21:10:09.651Z,0.65
2024-01-16T21:12:37.478Z,0.60
2024-01-16T21:15:07.793Z,0.62
2024-01-16T21:17:35.917Z,0.62
2024-01-16T21:20:07.188Z,0.60
2024-01-16T21:22:36.990Z,0.58
2024-01-16T21:25:06.941Z,0.59
2024-01-16T21:27:35.179Z,0.68
2024-01-16T21:30:03.550Z,0.68
2024-01-16T21:32:31.713Z,0.62
2024-01-16T21:34:59.668Z,0.59
2024-01-16T21:37:28.852Z,0.59
2024-01-16T21:39:56.664Z,0.53
2024-01-16T21:42:24.323Z,0.45
2024-01-16T21:44:53.520Z,0.47
2024-01-16T21:47:24.834Z,0.50
2024-01-16T21:49:52.993Z,0.47
2024-01-16T21:52:22.106Z,0.42
2024-01-16T21:54:52.044Z,0.46
2024-01-16T21:57:20.168Z,0.46
2024-01-16T21:59:47.867Z,0.29
2024-01-16T22:02:18.469Z,0.42
2024-01-16T22:04:46.566Z,0.43
2024-01-16T22:07:14.343Z,0.37
2024-01-16T22:09:42.913Z,0.39
2024-01-16T22:12:12.273Z,0.37
2024-01-16T22:14:40.436Z,0.40
2024-01-16T22:17:09.227Z,0.43
2024-01-16T22:19:36.980Z,0.35
2024-01-16T22:22:05.233Z,0.36
2024-01-16T22:24:33.030Z,0.38
2024-01-16T22:27:00.934Z,0.43
2024-01-16T22:29:30.640Z,0.32
2024-01-16T22:31:58.634Z,0.36
2024-01-16T22:34:27.104Z,0.41
2024-01-16T22:36:54.992Z,0.42
2024-01-16T22:39:25.300Z,0.42
2024-01-16T22:41:54.369Z,0.33
2024-01-16T22:44:23.254Z,0.41
2024-01-16T22:46:52.636Z,0.34
2024-01-16T22:49:20.413Z,0.29
2024-01-16T22:51:48.686Z,0.32
2024-01-16T22:54:16.586Z,0.25
2024-01-16T22:56:44.379Z,0.29
2024-01-16T22:59:12.383Z,0.28
2024-01-16T23:01:40.060Z,0.28
2024-01-16T23:04:09.313Z,0.26
2024-01-16T23:06:37.241Z,0.23
2024-01-16T23:09:06.975Z,0.11
2024-01-16T23:11:35.061Z,0.15
2024-01-16T23:14:04.196Z,0.12
2024-01-16T23:16:33.736Z,0.23
2024-01-16T23:19:01.953Z,0.19
2024-01-16T23:21:31.198Z,0.25
2024-01-16T23:23:59.144Z,0.34
2024-01-16T23:26:27.436Z,0.36
2024-01-16T23:28:55.763Z,0.38
2024-01-16T23:31:23.470Z,0.23
2024-01-16T23:33:51.536Z,0.14
2024-01-16T23:36:19.804Z,0.22
2024-01-16T23:38:49.003Z,0.19
2024-01-16T23:41:16.792Z,0.24
2024-01-16T23:43:46.092Z,0.23
2024-01-16T23:46:14.667Z,0.21
2024-01-16T23:48:45.169Z,0.16
2024-01-16T23:51:13.321Z,-0.03
2024-01-16T23:53:41.143Z,-0.05
2024-01-16T23:56:10.470Z,-0.05
2024-01-16T23:58:38.262Z,-0.07
